createdAt,value
2019-03-16T00:01:20.865Z,2.30
2019-03-16T00:03:48.467Z,2.30
2019-03-16T00:06:16.071Z,2.27
2019-03-16T00:08:43.796Z,2.30
2019-03-16T00:11:11.470Z,2.43
2019-03-16T00:13:39.020Z,2.20
2019-03-16T00:16:06.699Z,2.20
2019-03-16T00:18:34.275Z,2.00
2019-03-16T00:21:01.848Z,2.10
2019-03-16T00:23:29.408Z,1.90
2019-03-16T00:25:57.016Z,1.90
2019-03-16T00:28:24.618Z,2.83
2019-03-16T00:30:52.851Z,2.60
2019-03-16T00:33:20.539Z,2.70
2019-03-16T00:35:48.104Z,2.50
2019-03-16T00:38:15.692Z,2.57
2019-03-16T00:40:43.244Z,3.13
2019-03-16T00:43:10.966Z,2.10
2019-03-16T00:45:38.648Z,2.63
2019-03-16T00:48:07.051Z,2.73
2019-03-16T00:50:34.702Z,2.00
2019-03-16T00:53:02.220Z,2.90
2019-03-16T00:55:30.150Z,2.10
2019-03-16T00:57:57.868Z,3.37
2019-03-16T01:00:26.162Z,3.07
2019-03-16T01:02:53.762Z,2.40
2019-03-16T01:05:22.858Z,3.40
2019-03-16T01:07:50.440Z,2.37
2019-03-16T01:10:18.067Z,2.50
2019-03-16T01:12:45.689Z,2.90
2019-03-16T01:15:13.318Z,7.43
2019-03-16T01:17:40.922Z,4.37
2019-03-16T01:20:08.564Z,3.00
2019-03-16T01:22:36.189Z,2.93
2019-03-16T01:25:04.331Z,2.37
2019-03-16T01:27:32.048Z,4.37
2019-03-16T01:29:59.968Z,4.53
2019-03-16T01:32:39.746Z,3.27
2019-03-16T01:34:56.903Z,7.23
2019-03-16T01:37:24.477Z,4.90
2019-03-16T01:39:52.097Z,3.53
2019-03-16T01:42:21.206Z,3.80
2019-03-16T01:44:49.141Z,4.67
2019-03-16T01:47:16.670Z,4.23
2019-03-16T01:49:44.273Z,3.50
2019-03-16T01:52:11.831Z,5.53
2019-03-16T01:54:39.509Z,3.87
2019-03-16T01:57:07.104Z,4.57
2019-03-16T01:59:34.789Z,2.90
2019-03-16T02:02:02.368Z,3.03
2019-03-16T02:04:30.797Z,2.80
2019-03-16T02:06:58.361Z,2.90
2019-03-16T02:09:26.004Z,2.57
2019-03-16T02:11:53.619Z,2.30
2019-03-16T02:14:21.281Z,2.37
2019-03-16T02:16:48.907Z,2.57
2019-03-16T02:19:16.507Z,2.37
2019-03-16T02:21:44.147Z,2.33
2019-03-16T02:24:11.886Z,2.47
2019-03-16T02:26:39.451Z,2.50
2019-03-16T02:29:07.131Z,2.63
2019-03-16T02:31:34.675Z,2.70
2019-03-16T02:34:02.385Z,2.57
2019-03-16T02:36:29.972Z,2.70
2019-03-16T02:38:57.539Z,2.97
2019-03-16T02:41:26.269Z,2.90
2019-03-16T02:43:54.182Z,3.30
2019-03-16T02:46:21.822Z,3.40
2019-03-16T02:48:50.078Z,3.33
2019-03-16T02:51:17.612Z,3.70
2019-03-16T02:53:45.176Z,3.60
2019-03-16T02:56:12.740Z,3.60
2019-03-16T02:58:40.292Z,3.20
2019-03-16T03:01:07.851Z,3.30
2019-03-16T03:03:35.426Z,2.60
2019-03-16T03:06:03.172Z,5.27
2019-03-16T03:08:30.918Z,4.40
2019-03-16T03:10:58.744Z,2.93
2019-03-16T03:13:26.336Z,2.50
2019-03-16T03:15:54.077Z,2.70
2019-03-16T03:18:23.254Z,2.23
2019-03-16T03:20:50.838Z,2.17
2019-03-16T03:23:18.405Z,2.20
2019-03-16T03:25:45.978Z,3.47
2019-03-16T03:28:13.528Z,2.40
2019-03-16T03:30:41.102Z,1.60
2019-03-16T03:33:08.667Z,1.30
2019-03-16T03:35:37.028Z,1.60
2019-03-16T03:38:04.597Z,1.20
2019-03-16T03:40:32.197Z,1.30
2019-03-16T03:42:59.779Z,1.40
2019-03-16T03:45:27.399Z,1.00
2019-03-16T03:47:54.927Z,1.37
2019-03-16T03:50:22.510Z,1.50
2019-03-16T03:52:50.106Z,1.40
2019-03-16T03:55:18.173Z,0.83
2019-03-16T03:57:45.830Z,3.20
2019-03-16T04:00:13.590Z,2.50
2019-03-16T04:02:41.121Z,2.20
2019-03-16T04:05:08.977Z,1.20
2019-03-16T04:07:36.675Z,1.50
2019-03-16T04:10:05.233Z,1.07
2019-03-16T04:12:32.866Z,1.60
2019-03-16T04:15:00.597Z,1.87
2019-03-16T04:17:28.952Z,1.10
2019-03-16T04:19:56.512Z,1.20
2019-03-16T04:22:24.104Z,1.27
2019-03-16T04:24:51.767Z,1.30
2019-03-16T04:27:19.396Z,1.00
2019-03-16T04:29:46.930Z,0.80
2019-03-16T04:32:14.478Z,0.97
2019-03-16T04:34:44.854Z,1.07
2019-03-16T04:37:12.846Z,1.17
2019-03-16T04:39:40.443Z,0.70
2019-03-16T04:42:08.045Z,0.80
2019-03-16T04:44:35.984Z,0.87
2019-03-16T04:47:03.600Z,0.87
2019-03-16T04:49:31.161Z,0.80
2019-03-16T04:51:59.206Z,0.80
2019-03-16T04:54:27.202Z,0.70
2019-03-16T04:56:54.788Z,0.80
2019-03-16T04:59:22.336Z,0.90
2019-03-16T05:01:50.075Z,1.50
2019-03-16T05:04:17.719Z,1.23
2019-03-16T05:06:45.293Z,1.17
2019-03-16T05:09:13.572Z,1.27
2019-03-16T05:11:41.191Z,1.50
2019-03-16T05:14:08.849Z,1.00
2019-03-16T05:16:36.408Z,1.00
2019-03-16T05:19:03.985Z,1.10
2019-03-16T05:21:31.596Z,1.27
2019-03-16T05:24:01.616Z,1.20
2019-03-16T05:26:29.234Z,1.70
2019-03-16T05:28:56.752Z,1.60
2019-03-16T05:31:24.429Z,1.70
2019-03-16T05:33:51.974Z,1.40
2019-03-16T05:36:19.591Z,1.83
2019-03-16T05:38:47.716Z,1.80
2019-03-16T05:41:15.276Z,1.60
2019-03-16T05:43:42.819Z,1.60
2019-03-16T05:46:10.376Z,1.60
2019-03-16T05:48:37.939Z,1.50
2019-03-16T05:51:06.402Z,1.40
2019-03-16T05:53:33.983Z,1.30
2019-03-16T05:56:01.561Z,1.73
2019-03-16T05:58:29.157Z,1.40
2019-03-16T06:00:56.725Z,1.80
2019-03-16T06:03:24.586Z,1.20
2019-03-16T06:05:52.222Z,1.70
2019-03-16T06:08:19.780Z,1.40
2019-03-16T06:10:47.376Z,1.57
2019-03-16T06:13:14.965Z,1.20
2019-03-16T06:15:42.541Z,1.30
2019-03-16T06:18:13.060Z,1.30
2019-03-16T06:20:40.473Z,1.50
2019-03-16T06:23:08.088Z,1.17
2019-03-16T06:25:35.707Z,1.50
2019-03-16T06:28:03.337Z,1.80
2019-03-16T06:30:30.925Z,1.53
2019-03-16T06:32:59.039Z,1.17
2019-03-16T06:35:29.372Z,1.23
2019-03-16T06:40:23.123Z,1.50
2019-03-16T06:42:50.727Z,1.53
2019-03-16T06:45:18.302Z,1.60
2019-03-16T06:47:45.974Z,1.67
2019-03-16T06:50:13.630Z,1.93
2019-03-16T06:52:41.418Z,1.43
2019-03-16T06:55:09.967Z,1.70
2019-03-16T06:57:38.618Z,2.07
2019-03-16T07:00:07.006Z,1.87
2019-03-16T07:02:35.247Z,1.40
2019-03-16T07:05:04.143Z,1.50
2019-03-16T07:07:31.725Z,1.60
2019-03-16T07:09:59.435Z,1.40
2019-03-16T07:12:27.302Z,1.67
2019-03-16T07:14:55.043Z,1.60
2019-03-16T07:17:22.680Z,1.30
2019-03-16T07:19:50.702Z,2.30
2019-03-16T07:22:18.305Z,1.40
2019-03-16T07:24:45.934Z,1.60
2019-03-16T07:27:25.543Z,1.63
2019-03-16T07:29:43.072Z,1.30
2019-03-16T07:32:10.793Z,1.40
2019-03-16T07:34:38.422Z,1.50
2019-03-16T07:37:06.125Z,1.40
2019-03-16T07:39:33.847Z,1.30
2019-03-16T07:42:01.664Z,1.57
2019-03-16T07:44:30.050Z,1.30
2019-03-16T07:46:57.637Z,1.30
2019-03-16T07:49:25.255Z,0.97
2019-03-16T07:51:52.880Z,1.30
2019-03-16T07:54:23.837Z,1.10
2019-03-16T07:56:51.838Z,1.30
2019-03-16T07:59:19.453Z,1.10
2019-03-16T08:01:48.153Z,1.10
2019-03-16T08:04:16.227Z,1.37
2019-03-16T08:06:43.828Z,1.33
2019-03-16T08:09:11.666Z,1.20
2019-03-16T08:11:40.275Z,1.30
2019-03-16T08:14:08.400Z,1.47
2019-03-16T08:16:36.289Z,1.50
2019-03-16T08:19:04.002Z,1.43
2019-03-16T08:21:34.604Z,1.57
2019-03-16T08:24:02.154Z,1.40
2019-03-16T08:26:29.735Z,1.40
2019-03-16T08:28:59.138Z,1.70
2019-03-16T08:31:26.847Z,2.00
2019-03-16T08:33:54.996Z,2.00
2019-03-16T08:36:22.614Z,1.80
2019-03-16T08:38:50.432Z,1.90
2019-03-16T08:41:20.313Z,1.50
2019-03-16T08:43:47.918Z,1.70
2019-03-16T08:46:18.905Z,1.50
2019-03-16T08:48:46.519Z,1.60
2019-03-16T08:51:15.264Z,1.43
2019-03-16T08:53:42.864Z,1.37
2019-03-16T08:56:10.423Z,1.23
2019-03-16T08:58:38.164Z,1.20
2019-03-16T09:01:05.806Z,1.10
2019-03-16T09:03:43.187Z,1.00
2019-03-16T09:06:02.936Z,1.00
2019-03-16T09:08:31.312Z,1.13
2019-03-16T09:10:58.967Z,1.20
2019-03-16T09:13:26.910Z,1.03
2019-03-16T09:15:54.508Z,0.90
2019-03-16T09:18:22.149Z,1.00
2019-03-16T09:20:49.810Z,0.90
2019-03-16T09:23:18.193Z,1.10
2019-03-16T09:25:45.825Z,1.33
2019-03-16T09:28:18.705Z,1.30
2019-03-16T09:30:43.149Z,1.43
2019-03-16T09:33:10.830Z,1.17
2019-03-16T09:35:38.538Z,1.20
2019-03-16T09:38:06.450Z,1.23
2019-03-16T09:40:34.086Z,1.37
2019-03-16T09:43:01.681Z,1.00
2019-03-16T09:45:29.325Z,1.30
2019-03-16T09:47:57.317Z,1.07
2019-03-16T09:50:25.020Z,1.00
2019-03-16T09:52:52.679Z,0.90
2019-03-16T09:55:20.332Z,1.03
2019-03-16T09:57:47.973Z,1.30
2019-03-16T10:00:15.656Z,1.10
2019-03-16T10:02:43.361Z,1.07
2019-03-16T10:05:11.892Z,1.20
2019-03-16T10:07:39.601Z,1.20
2019-03-16T10:10:07.622Z,1.60
2019-03-16T10:12:35.265Z,0.97
2019-03-16T10:15:03.311Z,1.53
2019-03-16T10:17:32.998Z,1.10
2019-03-16T10:20:01.109Z,1.20
2019-03-16T10:22:28.929Z,1.30
2019-03-16T10:24:56.531Z,1.10
2019-03-16T10:27:24.210Z,1.40
2019-03-16T10:29:51.940Z,1.67
2019-03-16T10:32:24.459Z,1.50
2019-03-16T10:34:52.128Z,1.27
2019-03-16T10:37:31.858Z,1.10
2019-03-16T10:40:01.140Z,1.13
2019-03-16T10:42:50.069Z,1.40
2019-03-16T10:45:19.822Z,1.20
2019-03-16T10:47:47.525Z,1.33
2019-03-16T10:50:15.134Z,1.20
2019-03-16T10:53:07.215Z,1.27
2019-03-16T10:55:35.277Z,1.40
2019-03-16T10:58:05.260Z,1.27
2019-03-16T11:00:32.921Z,1.27
2019-03-16T11:03:13.191Z,1.10
2019-03-16T11:05:40.817Z,1.07
2019-03-16T11:08:13.577Z,1.33
2019-03-16T11:10:41.361Z,1.40
2019-03-16T11:13:09.086Z,1.80
2019-03-16T11:15:41.181Z,1.30
2019-03-16T11:18:42.993Z,1.40
2019-03-16T11:21:37.412Z,1.10
2019-03-16T11:24:05.533Z,1.60
2019-03-16T11:26:33.720Z,1.03
2019-03-16T11:29:08.906Z,1.07
2019-03-16T11:31:30.847Z,1.10
2019-03-16T11:33:58.503Z,1.10
2019-03-16T11:36:27.243Z,0.90
2019-03-16T11:38:55.011Z,1.13
2019-03-16T11:41:22.703Z,1.00
2019-03-16T11:43:50.363Z,1.10
2019-03-16T11:46:19.011Z,1.00
2019-03-16T11:48:47.726Z,1.00
2019-03-16T11:51:15.618Z,0.80
2019-03-16T11:54:02.764Z,1.20
2019-03-16T11:56:49.092Z,0.87
2019-03-16T11:59:22.906Z,1.10
2019-03-16T12:01:51.832Z,0.93
2019-03-16T12:04:19.496Z,0.93
2019-03-16T12:06:47.107Z,1.50
2019-03-16T12:09:14.868Z,0.90
2019-03-16T12:11:42.929Z,1.07
2019-03-16T12:14:10.709Z,1.20
2019-03-16T12:16:38.713Z,1.10
2019-03-16T12:19:06.756Z,1.20
2019-03-16T12:21:34.701Z,1.10
2019-03-16T12:24:02.510Z,1.20
2019-03-16T12:26:30.085Z,1.03
2019-03-16T12:28:57.720Z,1.30
2019-03-16T12:31:25.433Z,1.00
2019-03-16T12:33:53.046Z,1.10
2019-03-16T12:36:20.721Z,0.90
2019-03-16T12:38:49.137Z,1.63
2019-03-16T12:41:16.903Z,1.10
2019-03-16T12:43:44.639Z,1.13
2019-03-16T12:46:12.352Z,1.10
2019-03-16T12:48:40.157Z,1.07
2019-03-16T12:51:07.995Z,1.37
2019-03-16T12:53:35.716Z,1.13
2019-03-16T12:56:05.126Z,1.07
2019-03-16T12:58:32.878Z,1.10
2019-03-16T13:01:00.500Z,0.97
2019-03-16T13:03:28.131Z,1.30
2019-03-16T13:05:55.824Z,1.10
2019-03-16T13:08:23.698Z,1.20
2019-03-16T13:10:51.360Z,1.30
2019-03-16T13:13:19.004Z,1.20
2019-03-16T13:15:46.840Z,1.60
2019-03-16T13:18:15.366Z,1.30
2019-03-16T13:20:42.942Z,1.27
2019-03-16T13:23:10.940Z,1.33
2019-03-16T13:25:40.464Z,1.30
2019-03-16T13:28:08.096Z,1.20
2019-03-16T13:30:36.062Z,1.20
2019-03-16T13:33:03.676Z,1.20
2019-03-16T13:35:31.328Z,1.00
2019-03-16T13:37:59.049Z,0.93
2019-03-16T13:40:26.872Z,1.50
2019-03-16T13:42:54.478Z,1.30
2019-03-16T13:45:22.138Z,1.10
2019-03-16T13:47:51.906Z,1.40
2019-03-16T13:50:19.408Z,1.60
2019-03-16T13:52:47.777Z,1.33
2019-03-16T13:55:15.762Z,1.43
2019-03-16T13:57:44.144Z,1.20
2019-03-16T14:00:13.247Z,1.73
2019-03-16T14:02:40.900Z,1.47
2019-03-16T14:05:08.944Z,1.50
2019-03-16T14:07:36.896Z,1.20
2019-03-16T14:10:06.017Z,1.40
2019-03-16T14:12:33.629Z,1.33
2019-03-16T14:15:01.280Z,1.37
2019-03-16T14:17:48.864Z,1.43
2019-03-16T14:20:16.782Z,1.30
2019-03-16T14:22:45.244Z,1.50
2019-03-16T14:25:12.924Z,1.40
2019-03-16T14:27:40.710Z,1.20
2019-03-16T14:30:29.094Z,1.30
2019-03-16T14:32:42.535Z,1.63
2019-03-16T14:35:10.347Z,1.20
2019-03-16T14:37:38.032Z,1.73
2019-03-16T14:40:06.443Z,1.53
2019-03-16T14:42:34.566Z,1.30
2019-03-16T14:45:02.208Z,1.30
2019-03-16T14:47:29.987Z,1.40
2019-03-16T14:49:57.703Z,1.50
2019-03-16T14:52:27.861Z,1.50
2019-03-16T14:54:55.530Z,1.30
2019-03-16T14:57:23.204Z,1.57
2019-03-16T14:59:50.934Z,1.77
2019-03-16T15:02:19.005Z,1.43
2019-03-16T15:04:46.667Z,1.40
2019-03-16T15:07:14.343Z,1.43
2019-03-16T15:09:42.465Z,1.20
2019-03-16T15:12:10.201Z,1.40
2019-03-16T15:14:37.999Z,1.30
2019-03-16T15:17:05.693Z,1.30
2019-03-16T15:19:33.521Z,1.43
2019-03-16T15:22:01.150Z,1.27
2019-03-16T15:24:28.845Z,1.37
2019-03-16T15:26:57.792Z,1.60
2019-03-16T15:29:25.413Z,1.37
2019-03-16T15:31:53.743Z,1.53
2019-03-16T15:34:21.491Z,1.70
2019-03-16T15:36:49.271Z,1.50
2019-03-16T15:39:16.951Z,1.40
2019-03-16T15:41:44.719Z,1.30
2019-03-16T15:44:13.211Z,1.90
2019-03-16T15:46:40.946Z,1.60
2019-03-16T15:49:08.639Z,1.50
2019-03-16T15:51:36.415Z,1.43
2019-03-16T15:54:04.288Z,1.60
2019-03-16T15:56:32.009Z,1.53
2019-03-16T15:58:59.835Z,1.70
2019-03-16T16:01:27.607Z,1.73
2019-03-16T16:03:57.713Z,1.60
2019-03-16T16:06:25.586Z,1.63
2019-03-16T16:08:53.403Z,1.87
2019-03-16T16:11:21.162Z,1.63
2019-03-16T16:13:48.850Z,1.33
2019-03-16T16:16:16.576Z,1.87
2019-03-16T16:18:45.311Z,1.67
2019-03-16T16:21:15.478Z,1.77
2019-03-16T16:23:43.159Z,1.80
2019-03-16T16:26:10.948Z,1.50
2019-03-16T16:28:39.499Z,2.10
2019-03-16T16:31:16.376Z,1.40
2019-03-16T16:33:36.858Z,1.57
2019-03-16T16:36:04.641Z,1.97
2019-03-16T16:38:32.355Z,1.90
2019-03-16T16:41:29.400Z,1.60
2019-03-16T16:43:57.312Z,1.87
2019-03-16T16:46:25.541Z,1.73
2019-03-16T16:48:53.315Z,2.10
2019-03-16T16:51:20.953Z,1.87
2019-03-16T16:53:48.697Z,1.77
2019-03-16T16:56:19.332Z,2.03
2019-03-16T16:58:47.852Z,1.87
2019-03-16T17:01:28.496Z,2.10
2019-03-16T17:03:45.070Z,2.20
2019-03-16T17:06:12.675Z,1.77
2019-03-16T17:08:40.578Z,1.97
2019-03-16T17:11:11.747Z,2.30
2019-03-16T17:14:19.466Z,1.73
2019-03-16T17:16:45.056Z,2.30
2019-03-16T17:19:12.728Z,2.47
2019-03-16T17:21:42.541Z,1.60
2019-03-16T17:24:13.365Z,2.20
2019-03-16T17:26:41.034Z,2.20
2019-03-16T17:29:26.070Z,2.13
2019-03-16T17:31:54.558Z,2.10
2019-03-16T17:34:22.237Z,1.97
2019-03-16T17:36:49.825Z,2.40
2019-03-16T17:39:18.184Z,2.10
2019-03-16T17:41:45.777Z,2.20
2019-03-16T17:44:13.498Z,2.77
2019-03-16T17:46:42.874Z,2.17
2019-03-16T17:49:11.105Z,3.80
2019-03-16T17:51:38.892Z,2.40
2019-03-16T17:54:06.479Z,2.50
2019-03-16T17:56:34.120Z,2.63
2019-03-16T17:59:02.120Z,2.70
2019-03-16T18:01:29.764Z,2.67
2019-03-16T18:03:58.325Z,2.70
2019-03-16T18:06:28.374Z,3.00
2019-03-16T18:08:56.076Z,3.20
2019-03-16T18:11:26.804Z,3.23
2019-03-16T18:13:54.457Z,2.50
2019-03-16T18:16:22.122Z,2.83
2019-03-16T18:18:49.761Z,2.57
2019-03-16T18:21:17.419Z,3.10
2019-03-16T18:23:45.535Z,3.30
2019-03-16T18:26:13.147Z,3.10
2019-03-16T18:28:40.983Z,2.73
2019-03-16T18:31:11.455Z,3.20
2019-03-16T18:33:39.070Z,3.03
2019-03-16T18:36:06.765Z,3.83
2019-03-16T18:38:37.551Z,2.77
2019-03-16T18:41:06.477Z,2.90
2019-03-16T18:43:34.505Z,3.17
2019-03-16T18:46:03.355Z,3.10
2019-03-16T18:48:30.977Z,3.17
2019-03-16T18:50:58.623Z,3.53
2019-03-16T18:53:26.242Z,3.40
2019-03-16T18:55:56.315Z,3.77
2019-03-16T18:58:36.561Z,4.00
2019-03-16T19:00:53.433Z,3.27
2019-03-16T19:03:21.356Z,4.57
2019-03-16T19:05:49.596Z,4.10
2019-03-16T19:08:17.559Z,3.70
2019-03-16T19:10:45.420Z,4.07
2019-03-16T19:13:13.231Z,3.90
2019-03-16T19:15:42.941Z,3.90
2019-03-16T19:18:10.699Z,4.53
2019-03-16T19:20:38.940Z,3.50
2019-03-16T19:23:08.549Z,3.60
2019-03-16T19:25:37.187Z,3.87
2019-03-16T19:28:07.804Z,3.77
2019-03-16T19:30:35.453Z,4.00
2019-03-16T19:33:03.194Z,3.70
2019-03-16T19:35:30.879Z,4.70
2019-03-16T19:38:01.254Z,3.77
2019-03-16T19:40:28.907Z,4.30
2019-03-16T19:42:56.561Z,4.87
2019-03-16T19:45:26.435Z,5.70
2019-03-16T19:47:54.765Z,5.97
2019-03-16T19:50:22.708Z,5.37
2019-03-16T19:52:50.406Z,6.10
2019-03-16T19:55:18.585Z,6.83
2019-03-16T19:57:46.493Z,5.80
2019-03-16T20:00:14.235Z,5.97
2019-03-16T20:02:50.292Z,5.33
2019-03-16T20:05:15.230Z,5.27
2019-03-16T20:07:43.131Z,4.83
2019-03-16T20:11:06.917Z,3.90
2019-03-16T20:13:33.767Z,4.20
2019-03-16T20:16:01.487Z,4.10
2019-03-16T20:18:29.217Z,3.47
2019-03-16T20:20:56.874Z,3.90
2019-03-16T20:23:24.455Z,3.93
2019-03-16T20:25:52.177Z,3.93
2019-03-16T20:28:20.327Z,4.47
2019-03-16T20:30:47.861Z,3.50
2019-03-16T20:33:23.674Z,3.60
2019-03-16T20:35:51.299Z,3.40
2019-03-16T20:38:18.959Z,3.87
2019-03-16T20:40:49.718Z,4.03
2019-03-16T20:43:20.519Z,3.87
2019-03-16T20:45:48.162Z,3.73
2019-03-16T20:51:24.249Z,3.87
2019-03-16T20:53:52.073Z,4.33
2019-03-16T20:56:19.817Z,4.37
2019-03-16T20:58:48.687Z,4.20
2019-03-16T21:01:16.502Z,4.20
2019-03-16T21:03:44.216Z,4.30
2019-03-16T21:06:12.254Z,4.60
2019-03-16T21:08:40.766Z,4.10
2019-03-16T21:11:12.528Z,4.20
2019-03-16T21:13:46.223Z,4.00
2019-03-16T21:16:18.042Z,4.20
2019-03-16T21:18:59.100Z,3.90
2019-03-16T21:21:23.198Z,4.20
2019-03-16T21:23:50.872Z,4.03
2019-03-16T21:26:18.594Z,3.27
2019-03-16T21:28:46.256Z,4.10
2019-03-16T21:31:15.740Z,4.50
2019-03-16T21:33:45.931Z,4.50
2019-03-16T21:36:16.620Z,3.90
2019-03-16T21:38:44.493Z,3.80
2019-03-16T21:41:12.139Z,4.00
2019-03-16T21:43:39.904Z,4.10
2019-03-16T21:46:07.571Z,4.20
2019-03-16T21:48:35.694Z,3.83
2019-03-16T21:51:05.484Z,3.70
2019-03-16T21:53:38.690Z,4.17
2019-03-16T21:56:07.301Z,3.70
2019-03-16T21:58:35.086Z,3.40
2019-03-16T22:01:05.618Z,3.43
2019-03-16T22:03:41.734Z,3.20
2019-03-16T22:06:11.783Z,2.87
2019-03-16T22:08:43.148Z,3.20
2019-03-16T22:11:14.651Z,3.03
2019-03-16T22:13:42.520Z,2.90
2019-03-16T22:16:11.822Z,3.13
2019-03-16T22:18:47.030Z,3.40
2019-03-16T22:21:15.503Z,2.77
2019-03-16T22:23:44.740Z,2.50
2019-03-16T22:26:13.244Z,2.70
2019-03-16T22:28:40.952Z,2.93
2019-03-16T22:31:11.371Z,2.90
2019-03-16T22:33:39.982Z,2.83
2019-03-16T22:36:08.569Z,2.43
2019-03-16T22:38:36.676Z,2.40
2019-03-16T22:41:04.936Z,2.30
2019-03-16T22:43:32.748Z,2.30
2019-03-16T22:46:01.133Z,2.87
2019-03-16T22:48:29.496Z,1.90
2019-03-16T22:51:00.447Z,1.90
2019-03-16T22:53:28.088Z,2.30
2019-03-16T22:56:23.683Z,2.10
2019-03-16T22:58:57.707Z,2.00
2019-03-16T23:01:29.410Z,2.20
2019-03-16T23:04:06.885Z,2.20
2019-03-16T23:06:30.170Z,1.90
2019-03-16T23:08:58.153Z,2.13
2019-03-16T23:11:26.884Z,1.93
2019-03-16T23:13:56.524Z,1.90
2019-03-16T23:16:28.017Z,1.70
2019-03-16T23:18:56.566Z,1.83
2019-03-16T23:21:25.330Z,1.90
2019-03-16T23:23:53.668Z,1.63
2019-03-16T23:26:37.903Z,1.67
2019-03-16T23:28:59.336Z,1.77
2019-03-16T23:31:28.995Z,1.77
2019-03-16T23:33:59.019Z,2.20
2019-03-16T23:36:29.794Z,1.80
2019-03-16T23:39:07.153Z,1.90
2019-03-16T23:41:40.576Z,1.70
2019-03-16T23:44:50.765Z,1.90
2019-03-16T23:47:31.558Z,1.90
2019-03-16T23:50:15.443Z,1.90
2019-03-16T23:52:56.513Z,2.00
2019-03-16T23:55:31.081Z,2.00
2019-03-16T23:58:05.362Z,1.77
